Arcata, CA (95518)

5:31 AM PST on March 03, 2015 (GMT -0800)
APRSWXNET Arcata CA US | Change Station
CLOSE
Current Station
Personal Weather Station
Location: Arcata, CA
Elevation: 183 ft
Nearby Weather Stations
Active Advisory: Frost Advisory

Elev 183 ft 40.88 °N, 124.08 °W | Updated 31 minutes ago

Clear
Clear
43 °F
Feels Like 43 °F
N
0
Wind Variable Wind from NNE
Gusts 1.0 mph

Today
High -- | Low -- °F
--% Chance of Precip.
Yesterday
High -- | Low -- °F
Precip. -- in
6:47 AM 6:09 PM
Waxing Gibbous, 96% visible
Pressure 30.07 in
Visibility 10.0 miles
Clouds Mostly Cloudy 1500 ft
Windchill 43 °F
Dew Point 42 °F
Humidity 96%
Rainfall 0.00 in
Snow Depth Not available.
UV 0 out of 12
Pollen 7.20 out of 12
Air Quality Not available.
Flu Activity Not available.
SPECI KACV 031315Z AUTO 10003KT 10SM BKN015 02/02 A3007 RMK AO2 T00220017

More Conditions Fewer Conditions

Pressure 30.07 in
Visibility 10.0 miles
Clouds Mostly Cloudy 1500 ft
Windchill 43 °F
Dew Point 42 °F
Humidity 96%
Rainfall 0.00 in
Snow Depth Not available.
UV 0 out of 12
Pollen 7.20 out of 12
Air Quality Not available.
Flu Activity Not available.
SPECI KACV 031315Z AUTO 10003KT 10SM BKN015 02/02 A3007 RMK AO2 T00220017

More Conditions Fewer Conditions

10-Day Weather Forecast

Almanac

Astronomy

Mar. 03, 2015 Rise Set
Actual Time
Civil Twilight
Nautical Twilight
Astronomical Twilight
Moon
Length of Visible Light
Length of Day
Tomorrow will be .
, % of the Moon is Illuminated

Today's Extremes

State Highs State Lows

Community

WunderPhotos

Upload Photos

1,802,101 photos uploaded!

WunderBlogs® & News

Nearby

Air Quality

  Air Quality AQ Index Pollutant
Not available.

Snow Depth

Station Depth Elevation

Earthquake Activity

City Distance Mag. Time & Date
Minimum magnitude displayed is 2.5.

Coastal Water Temperatures

Place Temperature

Nearby Weather Stations

Frost Advisory
Statement as of 2:53 AM PST on March 03, 2015

... Frost advisory in effect from 1 am to 7 am PST Wednesday...

The National Weather Service in Eureka has issued a frost
advisory... which is in effect from 1 am to 7 am PST Wednesday.

* Low temperatures... mid 30s.

* Locations include... McKinleyville... Arcata... Eureka... Fortuna...
Fort Bragg... and Boonville.

* For a detailed view of the hazard area... visit
http://www.Weather.Gov/Eureka/hazards

Precautionary/preparedness actions...

A frost advisory means that frost is possible. Sensitive outdoor
plants may be killed if left uncovered.